CJF3 weather

Île-à-la-Crosse Airport
Île-à-la-Crosse, Saskatchewan, Canada

Public forecast

Using degrees Celsius for public forecast. Weather courtesy of forecast.io.

Closest aviation weather report (METAR) to Île-à-la-Crosse Airport

Closest report is Buffalo Narrows Airport, 26.8 nm (49.7 km) NW. Retrieved 2019/12/09 15:00 UTC (22 minutes ago):

CYVT 091500Z AUTO 33007KT 9SM CLR M26/M29 A3018 RMK SLP270

Closest aviation forecast (TAF) to Île-à-la-Crosse Airport

Closest forecast is Buffalo Narrows Airport, 26.8 nm (49.7 km) NW. Retrieved 2019/12/09 14:39 UTC (43 minutes ago):

TAF CYVT 091338Z 0914/1002 34012KT P6SM SCT012 TEMPO 0914/0917 BKN012 FM091700 32008KT P6SM SKC RMK FCST BASED ON AUTO OBS NXT FCST BY 091900Z